Flight Track Log - Related Links

Times and Time Zones

All times are in EST time to prevent confusion due to time zone crossing. See the N354LQ flight status page for this flight to view local times or setup timezone preferences in your user account.

Time Position Orientation Groundspeed Altitude Reporting Facility
EST Latitude Longitude Course Direction KTS MPH feet Rate Location/Type
Fri 12:51:03 AM 39.5619 -105.0197 305° West 248 285 12,800  Level Denver Center
Fri 12:52:04 AM 39.5864 -105.1017 291° West 250 288 16,500 3,471 Climbing Denver Center
Fri 12:53:04 AM 39.6036 -105.1831 285° West 238 274 19,800 2,281 Climbing Denver Center
Fri 12:54:05 AM 39.6194 -105.2636 284° West 264 304 21,100 1,574 Climbing Denver Center
Fri 12:55:00 AM 39.7500 -105.1150 270° West  Level FlightAware Approximate
Fri 12:55:06 AM 39.6411 -105.3711 285° West 297 342 23,000  Level Denver Center
Fri 12:56:07 AM 39.6678 -105.5117 284° West 330 380 25,500 2,083 Climbing Denver Center
Fri 12:57:07 AM 39.6928 -105.6325 285° West 343 395 27,200 1,785 Climbing Denver Center
Fri 12:58:08 AM 39.6772 -105.7578 261° West 355 409 29,100 1,791 Climbing Denver Center
Fri 12:59:21 AM 39.6553 -105.8786 257° West 347 399 31,200 1,567 Climbing Denver Center
Fri 01:00:22 AM 39.6250 -106.0228 255° West 347 399 32,600 857 Climbing Denver Center
Fri 01:02:23 AM 39.5736 -106.2697 255° West 377 434 33,800 692 Climbing Denver Center
Fri 01:03:24 AM 39.5450 -106.4031 254° West 383 441 34,700 893 Climbing Denver Center
Fri 01:04:24 AM 39.5158 -106.5392 255° West 376 433 35,600 793 Climbing Denver Center
Fri 01:05:25 AM 39.4856 -106.6814 255° West 370 426 36,300 541 Climbing Denver Center
Fri 01:06:26 AM 39.4575 -106.8075 254° West 377 434 36,700 446 Climbing Denver Center
Fri 01:07:26 AM 39.4294 -106.9333 254° West 380 437 37,200 496 Climbing Denver Center
Fri 01:08:27 AM 39.3650 -107.0633 237° Southwest 381 438 37,700 397 Climbing Denver Center
Fri 01:09:27 AM 39.3203 -107.1792 244° Southwest 377 434 38,000 149 Climbing Denver Center
Fri 01:10:28 AM 39.2700 -107.2936 240° Southwest 379 436 38,000  Level Denver Center
Fri 01:11:29 AM 39.2144 -107.4272 242° Southwest 378 435 38,000  Level Denver Center
Fri 01:12:29 AM 39.1656 -107.5406 241° Southwest 377 434 38,000  Level Denver Center
Fri 01:13:30 AM 39.1181 -107.6542 242° Southwest 377 434 38,000  Level Denver Center
Fri 01:14:30 AM 39.0625 -107.7825 241° Southwest 370 426 38,000  Level Denver Center
Fri 01:15:31 AM 39.0133 -107.8953 241° Southwest 374 430 38,000  Level Denver Center
Fri 01:16:31 AM 38.9675 -108.0067 242° Southwest 370 426 38,000  Level Denver Center
Fri 01:17:32 AM 38.9200 -108.1164 241° Southwest 367 422 38,000  Level Denver Center
Fri 01:18:32 AM 38.8644 -108.2433 241° Southwest 365 420 38,000  Level Denver Center
Fri 01:19:33 AM 38.8175 -108.3531 241° Southwest 366 421 38,000 49 Level Denver Center
Fri 01:20:34 AM 38.7692 -108.4636 241° Southwest 369 425 38,100  Climbing Denver Center
Fri 01:21:34 AM 38.7119 -108.5908 240° Southwest 369 425 38,000 -50 Descending Denver Center
Fri 01:22:35 AM 38.6639 -108.7028 241° Southwest 372 428 38,000  Level Denver Center
Fri 01:23:35 AM 38.6147 -108.8142 241° Southwest 374 430 38,000  Level Denver Center
Fri 01:24:36 AM 38.5639 -108.9228 239° Southwest 372 428 38,000  Level Denver Center
Fri 01:25:36 AM 38.5078 -109.0528 241° Southwest 372 428 38,000  Level Denver Center
Fri 01:26:37 AM 38.4575 -109.1633 240° Southwest 375 432 38,000 50 Level Denver Center
Fri 01:27:37 AM 38.4089 -109.2753 241° Southwest 376 433 38,100  Climbing Denver Center
Fri 01:28:38 AM 38.3497 -109.4058 240° Southwest 380 437 38,000 -50 Descending Denver Center
Fri 01:29:38 AM 38.2994 -109.5169 240° Southwest 380 437 38,000  Level Denver Center
Fri 01:30:38 AM 38.2489 -109.6275 240° Southwest 377 434 38,000  Level Denver Center
Fri 01:31:39 AM 38.1883 -109.7575 239° Southwest 382 440 38,000  Level Denver Center
Fri 01:32:39 AM 38.1364 -109.8703 240° Southwest 384 442 38,000  Level Denver Center
Fri 01:33:40 AM 38.0850 -109.9836 240° Southwest 387 445 38,000  Level Denver Center
Fri 01:34:40 AM 38.0328 -110.0961 240° Southwest 386 444 38,000  Level Denver Center
Fri 01:35:41 AM 37.9736 -110.2272 240° Southwest 384 442 38,000  Level Denver Center
Fri 01:42:56 AM 37.5756 -111.0761 238° Southwest 393 452 38,000  Level Denver Center
Fri 01:43:56 AM 37.5175 -111.1928 238° Southwest 393 452 38,000  Level Denver Center
Fri 01:44:00 AM 37.5299 -111.1582 239° Southwest  Level FlightAware Approximate
Fri 01:44:57 AM 37.4622 -111.3106 239° Southwest 391 450 38,000  Level Denver Center
Fri 01:45:00 AM 37.4745 -111.2727 239° Southwest  Level FlightAware Approximate
Fri 01:45:57 AM 37.4061 -111.4294 239° Southwest 394 453 38,000  Level Denver Center
Fri 01:46:00 AM 37.4190 -111.3869 239° Southwest  Level FlightAware Approximate
Fri 01:46:57 AM 37.3486 -111.5464 238° Southwest 395 455 38,000  Level Denver Center
Fri 01:47:00 AM 37.3634 -111.5010 238° Southwest  Level FlightAware Approximate
Fri 01:47:58 AM 37.2933 -111.6636 239° Southwest 391 450 38,000  Level Denver Center
Fri 01:48:00 AM 37.3077 -111.6149 238° Southwest  Level FlightAware Approximate
Fri 01:48:58 AM 37.2367 -111.7808 239° Southwest 392 451 38,000  Level Denver Center
Fri 01:49:58 AM 37.1778 -111.8975 238° Southwest 394 453 38,000  Level Denver Center
Fri 01:50:59 AM 37.1233 -112.0156 240° Southwest 393 452 38,000  Level Denver Center
Fri 01:51:59 AM 37.0644 -112.1322 238° Southwest 393 452 38,000  Level Denver Center
Fri 01:53:00 AM 37.0053 -112.2522 238° Southwest 399 459 38,000  Level Denver Center
Fri 01:54:13 AM 36.9342 -112.3972 239° Southwest 401 461 38,000  Level Los Angeles Center
Fri 01:55:14 AM 36.8744 -112.5167 238° Southwest 403 464 38,000  Level Los Angeles Center
Fri 01:56:15 AM 36.8161 -112.6358 239° Southwest 402 463 38,000  Level Los Angeles Center
Fri 01:57:16 AM 36.7569 -112.7531 238° Southwest 400 460 38,000  Level Los Angeles Center
Fri 01:58:17 AM 36.6856 -112.8925 237° Southwest 399 459 38,000  Level Los Angeles Center
Fri 01:59:32 AM 36.6147 -113.0325 238° Southwest 399 459 38,000  Level Los Angeles Center
Fri 02:00:33 AM 36.5528 -113.1492 237° Southwest 402 463 38,000  Level Los Angeles Center
Fri 02:01:34 AM 36.4911 -113.2672 237° Southwest 404 465 38,000  Level Los Angeles Center
Fri 02:02:35 AM 36.4281 -113.3839 236° Southwest 407 468 38,000  Level Los Angeles Center
Fri 02:03:36 AM 36.3656 -113.5008 236° Southwest 406 467 38,000  Level Los Angeles Center
Fri 02:04:37 AM 36.3036 -113.6194 237° Southwest 408 470 38,000  Level Los Angeles Center
Fri 02:05:38 AM 36.2419 -113.7356 237° Southwest 404 465 38,000  Level Los Angeles Center
Fri 02:06:39 AM 36.1775 -113.8531 236° Southwest 408 470 38,000  Level Los Angeles Center
Fri 02:07:40 AM 36.1161 -113.9697 237° Southwest 406 467 38,000  Level Los Angeles Center
Fri 02:08:40 AM 36.0536 -114.0858 236° Southwest 406 467 38,000  Level Los Angeles Center
Fri 02:09:41 AM 35.9917 -114.2036 237° Southwest 407 468 38,000  Level Los Angeles Center
Fri 02:10:42 AM 35.9292 -114.3197 236° Southwest 406 467 38,000  Level Los Angeles Center
Fri 02:11:43 AM 35.8675 -114.4353 237° Southwest 404 465 38,000  Level Los Angeles Center
Fri 02:12:44 AM 35.8064 -114.5506 237° Southwest 401 461 38,000  Level Los Angeles Center
Fri 02:13:57 AM 35.7319 -114.6883 236° Southwest 401 461 38,000  Level Los Angeles Center
Fri 02:14:57 AM 35.6572 -114.8269 236° Southwest 404 465 38,000  Level Los Angeles Center
Fri 02:15:58 AM 35.5953 -114.9428 237° Southwest 404 465 38,000  Level Los Angeles Center
Fri 02:16:59 AM 35.5344 -115.0592 237° Southwest 404 465 38,000  Level Los Angeles Center
Fri 02:18:00 AM 35.4728 -115.1753 237° Southwest 404 465 38,000  Level Los Angeles Center
Fri 02:19:01 AM 35.4097 -115.2889 236° Southwest 403 464 38,000  Level Los Angeles Center
Fri 02:20:01 AM 35.3450 -115.4014 235° Southwest 402 463 38,000  Level Los Angeles Center
Fri 02:21:02 AM 35.2792 -115.5150 235° Southwest 405 466 38,000  Level Los Angeles Center
Fri 02:22:03 AM 35.2161 -115.6300 236° Southwest 411 473 38,000 -132 Level Los Angeles Center
Fri 02:24:04 AM 35.0850 -115.8603 235° Southwest 412 474 37,600 -593 Descending Los Angeles Center
Fri 02:25:05 AM 35.0169 -115.9778 235° Southwest 420 483 36,200 -1,328 Descending Los Angeles Center
Fri 02:26:06 AM 34.9567 -116.0958 238° Southwest 415 478 34,900 -1,636 Descending Los Angeles Center
Fri 02:27:06 AM 34.9000 -116.2169 240° Southwest 411 473 32,900 -2,083 Descending Los Angeles Center
Fri 02:28:07 AM 34.8467 -116.3461 243° Southwest 420 483 30,700 -2,115 Descending Los Angeles Center
Fri 02:29:08 AM 34.7983 -116.4756 246° West 422 486 28,600 -2,331 Descending Los Angeles Center
Fri 02:30:08 AM 34.7658 -116.6069 253° West 403 464 26,000 -2,182 Descending Los Angeles Center
Fri 02:31:09 AM 34.7669 -116.7328 271° West 376 433 24,200 -1,033 Descending Los Angeles Center
Fri 02:32:10 AM 34.7550 -116.8497 263° West 352 405 23,900 -99 Descending Los Angeles Center
Fri 02:33:10 AM 34.7425 -116.9692 263° West 356 410 24,000 50 Climbing Los Angeles Center
Fri 02:34:11 AM 34.7308 -117.0944 264° West 370 426 24,000  Level Los Angeles Center
Fri 02:35:12 AM 34.7186 -117.2225 263° West 380 437 24,000 -347 Level Los Angeles Center
Fri 02:36:12 AM 34.7078 -117.3494 264° West 378 435 23,300 -2,287 Descending Los Angeles Center
Fri 02:38:13 AM 34.6789 -117.5942 262° West 365 420 17,100 -3,033 Descending Los Angeles Center
Fri 02:39:14 AM 34.6628 -117.7144 261° West 362 417 14,100 -1,291 Descending Los Angeles Center
Fri 02:45:16 AM 34.5833 -118.2833 158° South 256 295 8,000 -855 Descending Southern California TRACON
Fri 02:46:22 AM 34.5667 -118.3667 256° West 257 296 8,000 -150 Level Southern California TRACON
Fri 02:47:16 AM 34.5333 -118.4500 244° Southwest 245 282 7,700 -778 Descending Southern California TRACON
Fri 02:48:00 AM 34.3240 -118.5203 158° South  Level FlightAware Approximate
Fri 02:48:10 AM 34.4833 -118.4833 209° Southwest 246 283 6,600  Level Southern California TRACON
Fri 02:49:00 AM 34.2218 -118.4859 158° South  Level FlightAware Approximate
Fri 02:49:04 AM 34.4333 -118.5000 195° South 235 270 5,500  Level Southern California TRACON
Fri 02:50:04 AM 34.3833 -118.5000 180° South 176 203 5,000 -700 Descending Southern California TRACON
Fri 02:51:04 AM 34.3333 -118.5000 180° South 137 158 4,100 -1,056 Descending Southern California TRACON
Fri 02:51:52 AM 34.3000 -118.5000 180° South 137 158 3,100 -1,056 Descending Southern California TRACON
Fri 02:52:52 AM 34.2667 -118.5000 180° South 138 159 2,200 -900 Descending Southern California TRACON
Fri 02:54:00 AM 34.2098 -118.4900 180° South  Level Estimated
Fri 03:01:00 AM 34.2098 -118.4900 180° South  Level Estimated
Fri 03:02:00 AM 34.2098 -118.4900 180° South  Level Estimated

Login

Don't have an account? Register now (free) for customized features, flight alerts, and more!